createdAt,value
2018-01-15T00:01:23.505Z,6.85
2018-01-15T00:03:51.846Z,6.00
2018-01-15T00:06:20.165Z,6.28
2018-01-15T00:08:48.505Z,7.12
2018-01-15T00:11:16.837Z,5.45
2018-01-15T00:13:45.181Z,6.07
2018-01-15T00:16:13.501Z,7.45
2018-01-15T00:18:41.831Z,5.68
2018-01-15T00:21:10.179Z,5.70
2018-01-15T00:23:38.493Z,5.40
2018-01-15T00:26:06.848Z,5.12
2018-01-15T00:28:35.175Z,6.93
2018-01-15T00:31:03.529Z,5.93
2018-01-15T00:33:31.857Z,5.40
2018-01-15T00:36:00.221Z,5.93
2018-01-15T00:38:28.550Z,5.18
2018-01-15T00:40:56.894Z,5.78
2018-01-15T00:43:25.213Z,6.65
2018-01-15T00:45:53.549Z,7.35
2018-01-15T00:48:21.873Z,5.57
2018-01-15T00:50:50.217Z,6.47
2018-01-15T00:53:18.533Z,6.07
2018-01-15T00:55:46.874Z,4.43
2018-01-15T00:58:15.181Z,5.72
2018-01-15T01:00:43.513Z,5.12
2018-01-15T01:03:11.846Z,5.55
2018-01-15T01:05:40.181Z,4.90
2018-01-15T01:08:08.502Z,6.03
2018-01-15T01:10:36.837Z,5.10
2018-01-15T01:13:05.153Z,5.82
2018-01-15T01:15:33.493Z,5.82
2018-01-15T01:18:01.816Z,5.90
2018-01-15T01:20:30.202Z,5.57
2018-01-15T01:22:58.558Z,5.30
2018-01-15T01:25:27.026Z,6.45
2018-01-15T01:27:55.333Z,5.25
2018-01-15T01:30:23.694Z,5.60
2018-01-15T01:32:52.009Z,4.50
2018-01-15T01:35:20.341Z,5.87
2018-01-15T01:37:48.665Z,6.20
2018-01-15T01:40:17.010Z,7.10
2018-01-15T01:42:45.330Z,6.25
2018-01-15T01:45:13.669Z,5.45
2018-01-15T01:47:41.989Z,6.32
2018-01-15T01:50:10.329Z,6.22
2018-01-15T01:52:38.653Z,5.55
2018-01-15T01:55:06.994Z,7.28
2018-01-15T01:57:35.314Z,6.72
2018-01-15T02:00:03.681Z,5.70
2018-01-15T02:02:31.989Z,6.37
2018-01-15T02:05:00.346Z,6.87
2018-01-15T02:07:28.658Z,7.40
2018-01-15T02:09:57.001Z,5.75
2018-01-15T02:12:25.333Z,6.47
2018-01-15T02:14:53.852Z,6.50
2018-01-15T02:17:22.172Z,6.47
2018-01-15T02:19:50.497Z,6.70
2018-01-15T02:22:18.828Z,6.55
2018-01-15T02:24:47.149Z,6.47
2018-01-15T02:27:15.495Z,6.18
2018-01-15T02:29:43.805Z,6.80
2018-01-15T02:32:12.156Z,6.60
2018-01-15T02:34:40.478Z,5.45
2018-01-15T02:37:08.808Z,5.78
2018-01-15T02:39:37.129Z,6.65
2018-01-15T02:42:05.475Z,7.62
2018-01-15T02:44:33.802Z,7.30
2018-01-15T02:47:02.139Z,7.28
2018-01-15T02:49:30.457Z,6.28
2018-01-15T02:51:58.817Z,7.20
2018-01-15T02:54:27.137Z,6.78
2018-01-15T02:56:55.486Z,7.53
2018-01-15T02:59:23.805Z,6.80
2018-01-15T03:01:52.145Z,6.95
2018-01-15T03:04:20.457Z,6.43
2018-01-15T03:06:48.801Z,5.72
2018-01-15T03:09:17.120Z,6.65
2018-01-15T03:11:45.465Z,6.85
2018-01-15T03:14:13.810Z,6.90
2018-01-15T03:16:42.150Z,6.37
2018-01-15T03:19:10.474Z,6.65
2018-01-15T03:21:38.813Z,5.78
2018-01-15T03:24:07.128Z,6.47
2018-01-15T03:26:35.476Z,6.70
2018-01-15T03:29:03.799Z,7.00
2018-01-15T03:31:32.179Z,7.00
2018-01-15T03:34:00.481Z,6.72
2018-01-15T03:36:28.821Z,7.22
2018-01-15T03:38:57.142Z,6.47
2018-01-15T03:41:25.489Z,5.68
2018-01-15T03:43:53.805Z,6.22
2018-01-15T03:46:22.149Z,7.15
2018-01-15T03:48:50.469Z,8.57
2018-01-15T03:51:18.807Z,6.80
2018-01-15T03:53:47.158Z,6.75
2018-01-15T03:56:15.496Z,7.12
2018-01-15T03:58:43.814Z,6.37
2018-01-15T04:01:12.153Z,6.55
2018-01-15T04:03:40.517Z,6.72
2018-01-15T04:06:08.819Z,7.22
2018-01-15T04:08:37.143Z,6.07
2018-01-15T04:11:05.481Z,8.25
2018-01-15T04:13:33.801Z,7.10
2018-01-15T04:16:02.154Z,6.55
2018-01-15T04:18:30.475Z,7.00
2018-01-15T04:20:58.814Z,7.72
2018-01-15T04:23:27.152Z,6.80
2018-01-15T04:25:55.477Z,7.70
2018-01-15T04:28:23.814Z,7.57
2018-01-15T04:30:52.134Z,7.47
2018-01-15T04:33:20.484Z,7.82
2018-01-15T04:35:48.802Z,6.20
2018-01-15T04:38:17.142Z,7.20
2018-01-15T04:40:45.456Z,8.32
2018-01-15T04:43:13.802Z,7.40
2018-01-15T04:45:42.126Z,6.43
2018-01-15T04:48:10.465Z,6.87
2018-01-15T04:50:38.788Z,6.50
2018-01-15T04:53:07.130Z,8.50
2018-01-15T04:55:35.450Z,8.45
2018-01-15T04:58:03.806Z,8.60
2018-01-15T05:00:32.141Z,10.02
2018-01-15T05:03:00.536Z,9.32
2018-01-15T05:05:29.718Z,8.90
2018-01-15T05:07:58.057Z,6.95
2018-01-15T05:10:26.381Z,8.00
2018-01-15T05:12:54.749Z,7.72
2018-01-15T05:15:23.065Z,8.65
2018-01-15T05:17:51.413Z,8.93
2018-01-15T05:20:19.746Z,6.93
2018-01-15T05:22:48.087Z,7.65
2018-01-15T05:25:16.410Z,8.15
2018-01-15T05:27:44.761Z,8.00
2018-01-15T05:30:13.081Z,8.95
2018-01-15T05:32:41.425Z,6.82
2018-01-15T05:35:09.748Z,9.05
2018-01-15T05:37:38.098Z,8.27
2018-01-15T05:40:06.429Z,9.07
2018-01-15T05:42:34.769Z,9.50
2018-01-15T05:45:03.099Z,8.57
2018-01-15T05:47:31.441Z,8.67
2018-01-15T05:49:59.773Z,9.10
2018-01-15T05:52:28.117Z,8.73
2018-01-15T05:54:56.458Z,6.83
2018-01-15T05:57:24.809Z,7.70
2018-01-15T05:59:53.137Z,7.27
2018-01-15T06:02:21.481Z,8.77
2018-01-15T06:04:55.597Z,8.30
2018-01-15T06:07:24.015Z,9.53
2018-01-15T06:09:52.347Z,9.25
2018-01-15T06:12:20.694Z,7.67
2018-01-15T06:14:49.022Z,9.07
2018-01-15T06:17:17.702Z,8.38
2018-01-15T06:19:46.034Z,9.20
2018-01-15T06:22:14.386Z,7.43
2018-01-15T06:24:42.714Z,9.10
2018-01-15T06:27:11.041Z,8.67
2018-01-15T06:29:39.390Z,8.73
2018-01-15T06:32:07.722Z,10.05
2018-01-15T06:34:36.098Z,9.50
2018-01-15T06:37:04.438Z,9.77
2018-01-15T06:39:33.360Z,8.10
2018-01-15T06:42:01.681Z,9.20
2018-01-15T06:44:30.026Z,8.80
2018-01-15T06:46:58.377Z,7.85
2018-01-15T06:49:26.725Z,9.73
2018-01-15T06:51:55.058Z,9.20
2018-01-15T06:54:23.407Z,8.65
2018-01-15T06:56:51.727Z,9.30
2018-01-15T06:59:21.007Z,9.35
2018-01-15T07:01:49.328Z,9.30
2018-01-15T07:04:17.682Z,7.73
2018-01-15T07:06:46.049Z,9.35
2018-01-15T07:09:14.670Z,9.13
2018-01-15T07:11:43.006Z,10.33
2018-01-15T07:14:11.366Z,8.93
2018-01-15T07:16:39.781Z,9.40
2018-01-15T07:19:08.130Z,8.27
2018-01-15T07:21:36.455Z,8.33
2018-01-15T07:24:04.801Z,9.60
2018-01-15T07:26:33.131Z,8.23
2018-01-15T07:29:01.478Z,9.80
2018-01-15T07:31:29.811Z,8.23
2018-01-15T07:33:58.157Z,8.60
2018-01-15T07:36:26.499Z,9.77
2018-01-15T07:38:55.294Z,9.43
2018-01-15T07:41:23.626Z,11.33
2018-01-15T07:43:51.978Z,9.40
2018-01-15T07:46:20.303Z,8.98
2018-01-15T07:48:48.680Z,8.77
2018-01-15T07:51:17.121Z,8.40
2018-01-15T07:53:45.494Z,10.53
2018-01-15T07:56:13.808Z,10.23
2018-01-15T07:58:42.306Z,10.40
2018-01-15T08:01:10.633Z,10.43
2018-01-15T08:03:39.089Z,8.87
2018-01-15T08:06:07.485Z,10.13
2018-01-15T08:08:35.833Z,10.90
2018-01-15T08:11:04.166Z,11.10
2018-01-15T08:13:32.518Z,9.33
2018-01-15T08:16:00.841Z,10.63
2018-01-15T08:18:29.889Z,10.60
2018-01-15T08:20:58.226Z,9.50
2018-01-15T08:23:26.573Z,8.97
2018-01-15T08:25:54.935Z,9.35
2018-01-15T08:28:23.271Z,8.83
2018-01-15T08:30:51.648Z,10.13
2018-01-15T08:33:19.972Z,9.90
2018-01-15T08:35:48.322Z,9.37
2018-01-15T08:38:17.014Z,10.27
2018-01-15T08:40:45.363Z,10.75
2018-01-15T08:43:13.695Z,10.40
2018-01-15T08:45:42.055Z,9.73
2018-01-15T08:48:10.398Z,10.88
2018-01-15T08:50:38.802Z,11.80
2018-01-15T08:53:07.126Z,10.80
2018-01-15T08:55:35.490Z,10.13
2018-01-15T08:58:04.646Z,9.15
2018-01-15T09:00:33.016Z,10.87
2018-01-15T09:03:01.352Z,10.23
2018-01-15T09:05:29.714Z,10.07
2018-01-15T09:07:58.062Z,10.35
2018-01-15T09:10:26.422Z,10.73
2018-01-15T09:12:54.896Z,10.87
2018-01-15T09:15:23.256Z,12.00
2018-01-15T09:17:51.586Z,9.80
2018-01-15T09:20:19.946Z,9.57
2018-01-15T09:22:48.286Z,10.50
2018-01-15T09:25:16.647Z,8.80
2018-01-15T09:27:44.999Z,11.00
2018-01-15T09:30:13.486Z,9.77
2018-01-15T09:32:41.864Z,9.87
2018-01-15T09:35:10.293Z,11.23
2018-01-15T09:37:38.658Z,10.95
2018-01-15T09:40:07.077Z,10.13
2018-01-15T09:42:35.444Z,10.93
2018-01-15T09:45:03.808Z,10.57
2018-01-15T09:47:32.194Z,10.60
2018-01-15T09:50:00.554Z,11.07
2018-01-15T09:52:28.881Z,10.23
2018-01-15T09:54:57.360Z,10.10
2018-01-15T09:57:25.699Z,11.83
2018-01-15T09:59:54.070Z,10.50
2018-01-15T10:02:22.386Z,9.73
2018-01-15T10:04:50.816Z,10.70
2018-01-15T10:07:19.206Z,9.38
2018-01-15T10:09:47.598Z,12.03
2018-01-15T10:12:15.935Z,10.93
2018-01-15T10:14:44.329Z,10.80
2018-01-15T10:17:12.654Z,12.37
2018-01-15T10:19:41.082Z,10.63
2018-01-15T10:22:09.490Z,11.63
2018-01-15T10:24:37.841Z,10.30
2018-01-15T10:27:06.362Z,12.40
2018-01-15T10:29:34.801Z,12.65
2018-01-15T10:32:03.137Z,11.77
2018-01-15T10:34:31.474Z,9.77
2018-01-15T10:37:00.656Z,13.55
2018-01-15T10:39:29.022Z,12.50
2018-01-15T10:41:57.400Z,11.50
2018-01-15T10:44:25.750Z,11.87
2018-01-15T10:46:54.183Z,9.73
2018-01-15T10:49:22.526Z,13.10
2018-01-15T10:51:50.923Z,11.82
2018-01-15T10:54:19.275Z,11.20
2018-01-15T10:56:47.650Z,14.77
2018-01-15T10:59:15.969Z,12.97
2018-01-15T11:01:44.406Z,11.73
2018-01-15T11:04:12.721Z,13.60
2018-01-15T11:06:41.069Z,11.73
2018-01-15T11:09:09.421Z,12.60
2018-01-15T11:11:37.838Z,12.90
2018-01-15T11:14:06.178Z,11.48
2018-01-15T11:16:35.666Z,12.53
2018-01-15T11:19:04.067Z,12.20
2018-01-15T11:21:33.402Z,11.90
2018-01-15T11:24:01.813Z,14.17
2018-01-15T11:26:30.211Z,12.70
2018-01-15T11:28:58.541Z,13.53
2018-01-15T11:31:26.894Z,12.07
2018-01-15T11:33:55.234Z,12.40
2018-01-15T11:36:23.641Z,11.30
2018-01-15T11:38:51.965Z,9.90
2018-01-15T11:41:20.318Z,12.53
2018-01-15T11:43:48.641Z,12.80
2018-01-15T11:46:16.989Z,13.03
2018-01-15T11:48:45.321Z,12.40
2018-01-15T11:51:13.681Z,11.60
2018-01-15T11:53:42.015Z,12.07
2018-01-15T11:56:10.371Z,11.98
2018-01-15T11:58:38.707Z,14.10
2018-01-15T12:01:07.053Z,12.07
2018-01-15T12:03:35.384Z,13.40
2018-01-15T12:06:03.741Z,13.40
2018-01-15T12:08:32.069Z,12.67
2018-01-15T12:11:00.434Z,11.75
2018-01-15T12:13:28.762Z,15.23
2018-01-15T12:15:57.113Z,12.50
2018-01-15T12:18:25.449Z,13.27
2018-01-15T12:20:53.807Z,12.20
2018-01-15T12:23:22.133Z,10.15
2018-01-15T12:25:50.490Z,12.30
2018-01-15T12:28:18.825Z,11.63
2018-01-15T12:30:47.220Z,13.85
2018-01-15T12:33:15.534Z,10.70
2018-01-15T12:35:43.951Z,11.50
2018-01-15T12:38:12.328Z,14.20
2018-01-15T12:40:40.643Z,10.33
2018-01-15T12:43:08.998Z,12.13
2018-01-15T12:45:37.451Z,11.27
2018-01-15T12:48:05.780Z,9.93
2018-01-15T12:50:34.179Z,11.20
2018-01-15T12:53:02.531Z,10.93
2018-01-15T12:55:30.857Z,11.10
2018-01-15T12:57:59.206Z,13.38
2018-01-15T13:00:28.518Z,10.27
2018-01-15T13:02:57.121Z,12.60
2018-01-15T13:05:37.341Z,9.27
2018-01-15T13:11:07.417Z,10.70
2018-01-15T13:13:35.765Z,10.33
2018-01-15T13:16:04.137Z,11.40
2018-01-15T13:18:32.477Z,12.30
2018-01-15T13:21:00.799Z,12.27
2018-01-15T13:23:29.169Z,10.80
2018-01-15T13:25:57.550Z,11.90
2018-01-15T13:28:25.892Z,10.63
2018-01-15T13:30:54.208Z,10.27
2018-01-15T13:33:22.635Z,10.67
2018-01-15T13:35:51.668Z,9.93
2018-01-15T13:38:20.000Z,12.52
2018-01-15T13:40:48.325Z,12.60
2018-01-15T13:43:16.697Z,10.93
2018-01-15T13:45:45.024Z,14.10
2018-01-15T13:48:13.373Z,11.23
2018-01-15T13:50:41.682Z,10.90
2018-01-15T13:53:10.016Z,11.40
2018-01-15T13:55:38.342Z,11.83
2018-01-15T13:58:06.702Z,11.38
2018-01-15T14:00:35.034Z,11.25
2018-01-15T14:03:03.381Z,10.33
2018-01-15T14:05:31.710Z,10.25
2018-01-15T14:08:00.054Z,10.07
2018-01-15T14:10:28.380Z,10.40
2018-01-15T14:12:56.721Z,11.60
2018-01-15T14:15:25.045Z,9.80
2018-01-15T14:17:53.381Z,10.23
2018-01-15T14:20:21.705Z,9.07
2018-01-15T14:22:50.041Z,11.03
2018-01-15T14:25:18.389Z,11.37
2018-01-15T14:27:46.778Z,12.00
2018-01-15T14:30:15.106Z,11.63
2018-01-15T14:32:43.559Z,10.20
2018-01-15T14:35:11.837Z,10.03
2018-01-15T14:37:40.277Z,9.80
2018-01-15T14:40:08.600Z,11.05
2018-01-15T14:42:36.941Z,10.67
2018-01-15T14:45:05.270Z,10.07
2018-01-15T14:47:33.618Z,10.70
2018-01-15T14:50:01.947Z,12.90
2018-01-15T14:52:30.394Z,10.00
2018-01-15T14:54:58.717Z,11.90
2018-01-15T14:57:27.083Z,10.10
2018-01-15T14:59:55.408Z,10.27
2018-01-15T15:02:24.411Z,11.70
2018-01-15T15:04:52.739Z,10.87
2018-01-15T15:07:21.171Z,10.80
2018-01-15T15:09:49.489Z,13.32
2018-01-15T15:12:17.834Z,10.35
2018-01-15T15:14:46.181Z,11.43
2018-01-15T15:17:14.501Z,9.20
2018-01-15T15:19:42.960Z,11.20
2018-01-15T15:22:11.289Z,11.10
2018-01-15T15:24:39.625Z,10.70
2018-01-15T15:27:07.974Z,11.17
2018-01-15T15:29:36.377Z,8.60
2018-01-15T15:32:04.705Z,12.63
2018-01-15T15:34:33.037Z,9.00
2018-01-15T15:37:01.370Z,10.63
2018-01-15T15:39:29.808Z,12.00
2018-01-15T15:41:58.744Z,11.63
2018-01-15T15:44:27.091Z,11.97
2018-01-15T15:46:55.412Z,12.10
2018-01-15T15:49:23.752Z,9.60
2018-01-15T15:51:52.093Z,10.57
2018-01-15T15:54:20.425Z,11.03
2018-01-15T15:56:48.745Z,11.77
2018-01-15T15:59:17.101Z,12.03
2018-01-15T16:01:45.444Z,9.90
2018-01-15T16:04:13.888Z,11.90
2018-01-15T16:06:42.209Z,10.37
2018-01-15T16:09:10.553Z,12.37
2018-01-15T16:11:38.917Z,10.52
2018-01-15T16:14:07.320Z,9.40
2018-01-15T16:16:35.633Z,11.15
2018-01-15T16:19:05.025Z,10.30
2018-01-15T16:21:35.383Z,11.57
2018-01-15T16:24:03.777Z,9.40
2018-01-15T16:26:32.153Z,12.30
2018-01-15T16:29:00.534Z,14.13
2018-01-15T16:31:29.621Z,9.23
2018-01-15T16:33:58.006Z,12.73
2018-01-15T16:36:26.388Z,11.07
2018-01-15T16:38:55.013Z,10.60
2018-01-15T16:41:23.329Z,12.20
2018-01-15T16:43:52.620Z,13.45
2018-01-15T16:46:20.941Z,10.27
2018-01-15T16:48:49.289Z,11.20
2018-01-15T16:51:17.633Z,11.30
2018-01-15T16:53:45.953Z,8.83
2018-01-15T16:56:14.299Z,12.68
2018-01-15T16:58:43.611Z,11.17
2018-01-15T17:01:11.997Z,10.93
2018-01-15T17:03:40.337Z,10.73
2018-01-15T17:06:08.684Z,10.77
2018-01-15T17:08:37.018Z,10.02
2018-01-15T17:11:05.377Z,12.17
2018-01-15T17:13:33.697Z,11.18
2018-01-15T17:16:02.093Z,10.98
2018-01-15T17:18:30.421Z,10.23
2018-01-15T17:20:58.761Z,8.10
2018-01-15T17:23:27.080Z,7.83
2018-01-15T17:25:55.460Z,6.40
2018-01-15T17:28:23.770Z,8.87
2018-01-15T17:30:52.213Z,8.20
2018-01-15T17:33:20.531Z,7.53
2018-01-15T17:35:49.864Z,7.70
2018-01-15T17:38:18.271Z,7.05
2018-01-15T17:40:46.647Z,8.87
2018-01-15T17:43:15.022Z,6.85
2018-01-15T17:45:43.402Z,7.30
2018-01-15T17:48:12.721Z,6.70
2018-01-15T17:50:41.057Z,7.23
2018-01-15T17:53:09.380Z,7.50
2018-01-15T17:55:37.717Z,7.28
2018-01-15T17:58:06.057Z,7.83
2018-01-15T18:00:34.385Z,7.28
2018-01-15T18:03:02.738Z,6.53
2018-01-15T18:05:31.129Z,8.03
2018-01-15T18:07:59.441Z,8.00
2018-01-15T18:10:27.777Z,6.50
2018-01-15T18:12:56.098Z,5.47
2018-01-15T18:15:24.537Z,6.30
2018-01-15T18:17:52.866Z,5.80
2018-01-15T18:20:21.193Z,6.03
2018-01-15T18:22:49.504Z,7.23
2018-01-15T18:25:17.943Z,4.90
2018-01-15T18:27:47.074Z,5.20
2018-01-15T18:30:15.513Z,5.77
2018-01-15T18:32:43.829Z,4.60
2018-01-15T18:35:12.165Z,6.00
2018-01-15T18:37:40.486Z,5.10
2018-01-15T18:40:08.841Z,5.40
2018-01-15T18:42:37.231Z,6.95
2018-01-15T18:45:05.641Z,6.40
2018-01-15T18:47:34.314Z,4.20
2018-01-15T18:50:02.637Z,6.00
2018-01-15T18:52:30.981Z,6.40
2018-01-15T18:54:59.495Z,6.60
2018-01-15T18:57:27.913Z,6.85
2018-01-15T18:59:56.989Z,6.53
2018-01-15T19:02:25.317Z,5.80
2018-01-15T19:04:53.721Z,5.90
2018-01-15T19:07:22.072Z,5.90
2018-01-15T19:09:50.480Z,5.07
2018-01-15T19:12:18.807Z,4.75
2018-01-15T19:14:47.128Z,5.90
2018-01-15T19:17:15.467Z,4.53
2018-01-15T19:19:43.898Z,3.80
2018-01-15T19:22:12.245Z,4.57
2018-01-15T19:24:40.610Z,7.05
2018-01-15T19:27:08.954Z,5.73
2018-01-15T19:29:37.262Z,4.37
2018-01-15T19:32:05.610Z,6.03
